Time;durP1;ratioP1;P1;durP2;ratioP2;P2;SDS_P1;SDS_P2;PMS_P1;PMS_P2;Temp;Humidity;BMP_temperature;BMP_pressure;BME280_temperature;BME280_humidity;BME280_pressure;Samples;Min_cycle;Max_cycle;Signal;HPM_P1;HPM_P2
2023/06/27 00:00:34;;;;;;;9.93;5.05;;;;;;;17.56;64.33;101875.06;5092659;28;20015;-61
2023/06/27 00:03:00;;;;;;;9.55;4.65;;;;;;;17.56;64.52;101890.31;5094100;28;20380;-62
2023/06/27 00:05:25;;;;;;;8.85;4.88;;;;;;;17.79;64.41;101880.50;5095362;28;20379;-62
2023/06/27 00:07:50;;;;;;;13.55;5.03;;;;;;;17.52;64.62;101881.63;5113576;28;20031;-61
2023/06/27 00:10:16;;;;;;;10.00;4.68;;;;;;;17.63;64.78;101878.13;5094768;28;20023;-62
2023/06/27 00:12:44;;;;;;;7.75;4.75;;;;;;;17.68;64.31;101873.25;5112919;28;20153;-62
2023/06/27 00:15:09;;;;;;;11.38;5.18;;;;;;;17.78;64.54;101878.81;5110610;28;20043;-61
2023/06/27 00:17:35;;;;;;;12.82;5.63;;;;;;;17.51;64.48;101869.16;5085559;28;20087;-62
2023/06/27 00:20:02;;;;;;;8.98;5.40;;;;;;;17.65;64.60;101866.28;5110289;28;20024;-61
2023/06/27 00:22:28;;;;;;;6.80;4.88;;;;;;;17.72;64.26;101869.34;5108808;28;20020;-62
2023/06/27 00:24:54;;;;;;;8.68;5.07;;;;;;;17.51;65.08;101871.84;5111524;28;20399;-62
2023/06/27 00:27:20;;;;;;;8.93;5.07;;;;;;;17.60;64.71;101872.97;5101548;28;20108;-61
2023/06/27 00:29:48;;;;;;;12.60;5.57;;;;;;;17.38;65.76;101879.13;5117517;27;20085;-61
2023/06/27 00:32:13;;;;;;;14.13;5.18;;;;;;;17.44;65.27;101879.53;5094391;28;20035;-61
2023/06/27 00:34:38;;;;;;;11.10;5.20;;;;;;;17.54;64.83;101868.06;5113781;27;20431;-61
2023/06/27 00:37:04;;;;;;;12.35;5.57;;;;;;;17.52;65.05;101872.69;5113073;28;20068;-61
2023/06/27 00:39:32;;;;;;;7.70;4.95;;;;;;;17.67;64.65;101874.22;5111362;28;20035;-61
2023/06/27 00:41:58;;;;;;;10.38;5.28;;;;;;;17.46;65.41;101874.03;5091802;28;20020;-62
2023/06/27 00:44:23;;;;;;;12.35;4.93;;;;;;;17.59;64.90;101864.06;5094202;28;20028;-62
2023/06/27 00:46:51;;;;;;;10.80;5.50;;;;;;;17.56;65.36;101876.84;5112926;28;20020;-61
2023/06/27 00:49:18;;;;;;;11.88;5.80;;;;;;;17.54;65.25;101866.22;5112683;28;20076;-62
2023/06/27 00:51:46;;;;;;;9.38;5.03;;;;;;;17.67;65.27;101876.91;5112970;28;20039;-61
2023/06/27 00:54:13;;;;;;;12.80;5.18;;;;;;;17.43;65.60;101874.25;5112553;28;20555;-61
2023/06/27 00:56:38;;;;;;;12.32;5.22;;;;;;;17.45;65.59;101883.94;5094302;28;20385;-62
2023/06/27 00:59:05;;;;;;;11.63;5.47;;;;;;;17.37;66.33;101878.25;5112392;28;20019;-61
2023/06/27 01:01:31;;;;;;;7.50;5.05;;;;;;;17.35;66.06;101877.50;5109570;28;20042;-61
2023/06/27 01:03:57;;;;;;;14.15;5.40;;;;;;;17.31;66.41;101875.19;5094223;28;20027;-61
2023/06/27 01:06:33;;;;;;;15.10;5.20;;;;;;;17.30;66.59;101873.47;5112652;28;20015;-62
2023/06/27 01:09:08;;;;;;;12.52;5.15;;;;;;;17.44;65.77;101878.66;5112515;28;20094;-61
2023/06/27 01:11:54;;;;;;;9.23;5.43;;;;;;;17.24;66.41;101875.66;5093868;28;20034;-61
2023/06/27 01:14:23;;;;;;;14.25;5.47;;;;;;;17.31;66.07;101880.56;5112492;28;20124;-61
2023/06/27 01:16:50;;;;;;;12.93;5.13;;;;;;;17.18;66.50;101870.72;5109367;28;20412;-61
2023/06/27 01:19:21;;;;;;;13.70;6.00;;;;;;;17.22;66.66;101876.72;5110696;28;20103;-62
2023/06/27 01:21:48;;;;;;;10.23;4.70;;;;;;;17.19;66.80;101879.66;5091930;28;20047;-61
2023/06/27 01:24:17;;;;;;;9.70;5.18;;;;;;;17.23;66.71;101879.28;5112138;27;20434;-62
2023/06/27 01:26:42;;;;;;;13.48;5.20;;;;;;;17.28;66.23;101880.78;5112115;28;20020;-61
2023/06/27 01:29:08;;;;;;;13.38;5.43;;;;;;;17.08;66.91;101875.06;5094368;28;20042;-61
2023/06/27 01:31:43;;;;;;;12.70;5.15;;;;;;;17.19;66.49;101882.34;5093486;28;20028;-62
2023/06/27 01:34:17;;;;;;;13.38;5.35;;;;;;;17.11;67.46;101882.03;5093918;28;20039;-61
2023/06/27 01:36:53;;;;;;;14.10;5.63;;;;;;;16.96;67.79;101892.94;5093967;28;20077;-61
2023/06/27 01:39:25;;;;;;;10.85;4.78;;;;;;;16.94;67.82;101880.59;5111578;28;20394;-62
2023/06/27 01:41:56;;;;;;;11.35;5.38;;;;;;;16.97;67.70;101880.38;5094306;28;20020;-61
2023/06/27 01:44:24;;;;;;;12.52;5.57;;;;;;;16.89;67.98;101885.47;5111861;28;20494;-62
2023/06/27 01:46:51;;;;;;;10.00;4.97;;;;;;;16.95;68.30;101888.56;5093834;28;20107;-61
2023/06/27 01:49:17;;;;;;;11.50;5.47;;;;;;;16.96;68.05;101875.97;5112074;28;20012;-62
2023/06/27 01:51:42;;;;;;;12.45;5.30;;;;;;;16.74;68.87;101868.59;5111522;28;20050;-62
2023/06/27 01:54:08;;;;;;;10.90;5.40;;;;;;;16.88;68.44;101878.34;5110649;28;20110;-62
2023/06/27 01:56:34;;;;;;;11.00;5.45;;;;;;;16.89;68.48;101872.88;5111701;28;20027;-62
2023/06/27 01:58:59;;;;;;;12.23;5.07;;;;;;;16.90;68.71;101876.41;5082427;28;20033;-62
2023/06/27 02:01:25;;;;;;;9.50;5.30;;;;;;;16.79;69.23;101875.41;5094764;28;20066;-62
2023/06/27 02:03:50;;;;;;;8.13;4.90;;;;;;;16.81;68.81;101867.19;5096202;28;20027;-62
2023/06/27 02:06:16;;;;;;;10.27;4.93;;;;;;;16.79;68.91;101869.13;5111826;28;20402;-62
2023/06/27 02:08:43;;;;;;;9.18;4.82;;;;;;;16.84;69.15;101861.59;5083155;28;20024;-62
2023/06/27 02:11:09;;;;;;;12.07;4.85;;;;;;;16.84;69.30;101863.44;5112348;28;20092;-61
2023/06/27 02:13:36;;;;;;;9.98;5.13;;;;;;;16.89;68.91;101869.34;5095049;28;20471;-62
2023/06/27 02:16:02;;;;;;;8.13;4.72;;;;;;;16.84;69.17;101863.44;5089637;28;20382;-62
2023/06/27 02:18:27;;;;;;;11.60;5.18;;;;;;;16.84;69.75;101858.91;5080698;28;20052;-62
2023/06/27 02:20:53;;;;;;;11.82;5.43;;;;;;;16.65;69.90;101859.38;5108868;28;20038;-62
2023/06/27 02:23:18;;;;;;;11.25;5.35;;;;;;;16.82;69.47;101863.53;5113139;28;20059;-62
2023/06/27 02:25:44;;;;;;;10.05;4.70;;;;;;;16.64;69.87;101862.16;5114611;28;20437;-62
2023/06/27 02:28:09;;;;;;;17.67;5.88;;;;;;;16.57;70.28;101864.44;5114168;28;20031;-62
2023/06/27 02:30:34;;;;;;;9.52;4.97;;;;;;;16.57;70.47;101862.63;5080199;28;20563;-62
2023/06/27 02:33:00;;;;;;;10.63;5.18;;;;;;;16.55;70.84;101861.00;5089886;28;20019;-62
2023/06/27 02:35:25;;;;;;;13.98;5.63;;;;;;;16.63;70.43;101855.94;5096229;28;20024;-62
2023/06/27 02:37:50;;;;;;;12.43;4.93;;;;;;;16.61;70.60;101854.34;5103791;28;20028;-61
2023/06/27 02:40:18;;;;;;;14.55;4.80;;;;;;;16.54;70.90;101853.91;5100412;28;20035;-62
2023/06/27 02:42:44;;;;;;;11.25;5.18;;;;;;;16.58;70.71;101845.50;5104808;28;20015;-61
2023/06/27 02:45:12;;;;;;;11.40;5.03;;;;;;;16.48;71.04;101847.16;5113606;28;20054;-61
2023/06/27 02:47:38;;;;;;;10.90;5.20;;;;;;;16.70;70.99;101849.13;5097876;28;20038;-61
2023/06/27 02:50:04;;;;;;;13.23;4.72;;;;;;;16.50;71.02;101847.03;5114207;28;20076;-61
2023/06/27 02:52:29;;;;;;;13.15;5.55;;;;;;;16.38;71.94;101850.59;5113636;28;20044;-62
2023/06/27 02:54:55;;;;;;;19.38;6.68;;;;;;;16.38;71.86;101848.78;5095396;28;20405;-62
2023/06/27 02:57:20;;;;;;;10.93;5.32;;;;;;;16.47;71.71;101839.19;5112275;28;20031;-61
2023/06/27 02:59:46;;;;;;;10.00;4.93;;;;;;;16.49;71.83;101839.97;5114676;28;20069;-62
2023/06/27 03:02:11;;;;;;;13.48;5.60;;;;;;;16.39;72.36;101839.78;5114723;28;20035;-62
2023/06/27 03:04:37;;;;;;;12.82;4.90;;;;;;;16.38;72.60;101847.94;5114856;28;20026;-62
2023/06/27 03:07:05;;;;;;;13.95;5.05;;;;;;;16.35;72.63;101859.75;5114914;28;20102;-62
2023/06/27 03:09:32;;;;;;;9.00;5.18;;;;;;;16.29;72.93;101862.88;5105498;28;20083;-61
2023/06/27 03:11:58;;;;;;;16.27;5.18;;;;;;;16.25;72.99;101856.84;5104043;28;20031;-61
2023/06/27 03:14:23;;;;;;;13.50;4.93;;;;;;;16.34;72.95;101853.50;5093776;28;20023;-62
2023/06/27 03:16:54;;;;;;;12.93;4.95;;;;;;;16.32;72.96;101849.22;5111374;28;20435;-62
2023/06/27 03:19:19;;;;;;;14.00;5.50;;;;;;;16.37;73.04;101862.31;5112879;28;20038;-61
2023/06/27 03:21:47;;;;;;;11.05;5.07;;;;;;;16.28;73.31;101864.69;5113652;28;20024;-62
2023/06/27 03:24:13;;;;;;;12.68;5.03;;;;;;;16.44;73.25;101860.91;5096849;28;20024;-62
2023/06/27 03:26:38;;;;;;;13.20;5.30;;;;;;;16.31;73.22;101860.94;5106404;28;20031;-62
2023/06/27 03:29:04;;;;;;;10.35;4.93;;;;;;;16.24;73.46;101863.22;5112342;28;20477;-61
2023/06/27 03:31:29;;;;;;;13.52;5.38;;;;;;;16.40;73.44;101862.09;5114141;28;20023;-61
2023/06/27 03:33:56;;;;;;;16.55;5.05;;;;;;;16.19;73.56;101851.94;5095560;28;20482;-62
2023/06/27 03:36:25;;;;;;;13.40;4.65;;;;;;;16.27;73.89;101867.50;5114184;28;20030;-61
2023/06/27 03:38:51;;;;;;;13.95;5.40;;;;;;;16.26;73.93;101871.13;5113689;28;20050;-62
2023/06/27 03:41:17;;;;;;;10.15;4.50;;;;;;;16.35;74.06;101863.31;5114593;27;20020;-62
2023/06/27 03:43:42;;;;;;;15.18;5.25;;;;;;;16.28;74.04;101861.16;5095407;28;20136;-62
2023/06/27 03:46:12;;;;;;;11.45;5.63;;;;;;;16.14;74.66;101862.13;5114369;28;20024;-62
2023/06/27 03:48:37;;;;;;;;;;;;;;;16.45;72.11;101863.50;5096224;28;20042;-62
2023/06/27 03:51:03;;;;;;;12.57;4.82;;;;;;;16.16;74.69;101857.50;5113585;28;19915;-61
2023/06/27 03:53:28;;;;;;;12.38;4.97;;;;;;;16.15;74.79;101865.66;5094668;28;20040;-61
2023/06/27 03:55:54;;;;;;;17.13;5.35;;;;;;;16.17;75.15;101871.78;5095361;28;20023;-61
2023/06/27 03:58:19;;;;;;;14.18;5.95;;;;;;;16.13;74.94;101871.16;5114297;27;20106;-62
2023/06/27 04:00:45;;;;;;;13.48;5.35;;;;;;;15.94;75.80;101868.88;5113634;28;20042;-62
2023/06/27 04:03:10;;;;;;;13.68;5.32;;;;;;;16.09;75.08;101878.56;5113692;28;20050;-62
2023/06/27 04:05:35;;;;;;;18.10;5.85;;;;;;;16.07;75.41;101875.13;5095012;28;20032;-61
2023/06/27 04:08:01;;;;;;;13.27;5.68;;;;;;;16.11;75.42;101879.28;5113654;28;20524;-62
2023/06/27 04:10:28;;;;;;;14.30;5.80;;;;;;;16.06;75.49;101877.91;5113472;28;20023;-62
2023/06/27 04:12:54;;;;;;;11.88;5.32;;;;;;;16.07;75.74;101874.25;5113089;28;20028;-62
2023/06/27 04:15:19;;;;;;;16.38;5.93;;;;;;;16.08;75.57;101859.88;5112673;27;20126;-62
2023/06/27 04:17:45;;;;;;;11.93;5.68;;;;;;;15.86;76.08;101864.06;5113279;28;20024;-62
2023/06/27 04:20:12;;;;;;;13.32;5.45;;;;;;;15.94;76.20;101863.50;5112492;28;20023;-62
2023/06/27 04:22:37;;;;;;;12.32;5.80;;;;;;;15.89;76.39;101865.69;5095106;28;20511;-61
2023/06/27 04:25:08;;;;;;;16.70;6.22;;;;;;;15.90;76.75;101867.38;5107322;28;20027;-62
2023/06/27 04:27:34;;;;;;;12.43;5.97;;;;;;;16.04;76.20;101872.66;5113180;28;20008;-61
2023/06/27 04:29:59;;;;;;;14.50;6.65;;;;;;;15.89;76.46;101866.53;5112992;28;20509;-62
2023/06/27 04:32:24;;;;;;;15.05;6.22;;;;;;;15.82;76.76;101873.25;5096145;28;20020;-62
2023/06/27 04:34:50;;;;;;;12.82;6.18;;;;;;;15.93;76.51;101874.38;5094004;28;20124;-61
2023/06/27 04:37:18;;;;;;;15.70;6.55;;;;;;;15.72;77.38;101869.50;5111497;28;20031;-61
2023/06/27 04:39:44;;;;;;;14.65;5.97;;;;;;;15.64;77.68;101874.50;5108810;28;20375;-62
2023/06/27 04:42:10;;;;;;;13.35;5.88;;;;;;;15.86;77.44;101874.78;5112897;28;20023;-61
2023/06/27 04:44:37;;;;;;;16.40;5.97;;;;;;;15.84;77.27;101875.84;5110666;28;20024;-62
2023/06/27 04:47:03;;;;;;;18.58;6.38;;;;;;;15.82;77.39;101881.31;5110906;28;20035;-62
2023/06/27 04:49:28;;;;;;;22.70;6.40;;;;;;;15.95;77.42;101884.03;5111546;27;20019;-62
2023/06/27 04:51:54;;;;;;;11.85;6.03;;;;;;;15.92;77.56;101888.75;5112451;28;20101;-62
2023/06/27 04:54:21;;;;;;;17.35;6.53;;;;;;;15.92;77.50;101880.69;5111882;28;20045;-64
2023/06/27 04:56:47;;;;;;;17.30;6.47;;;;;;;15.86;77.97;101887.34;5112615;28;20382;-62
2023/06/27 04:59:12;;;;;;;12.48;6.18;;;;;;;15.93;77.54;101882.41;5093420;28;20026;-62
2023/06/27 05:01:38;;;;;;;18.95;6.63;;;;;;;15.84;78.07;101883.91;5112188;28;20107;-62
2023/06/27 05:04:06;;;;;;;13.65;6.78;;;;;;;15.96;78.51;101891.09;5092181;28;20024;-62
2023/06/27 05:06:33;;;;;;;17.75;7.28;;;;;;;15.94;78.20;101889.47;5094626;28;20305;-62
2023/06/27 05:08:59;;;;;;;17.60;6.60;;;;;;;15.93;78.48;101885.09;5091453;28;20461;-62
2023/06/27 05:11:24;;;;;;;14.77;6.57;;;;;;;16.04;77.93;101877.16;5092218;28;20054;-62
2023/06/27 05:13:50;;;;;;;16.08;7.05;;;;;;;15.99;78.44;101885.53;5091956;28;20020;-61
2023/06/27 05:16:18;;;;;;;15.63;6.65;;;;;;;16.15;78.43;101895.19;5106425;28;20027;-62
2023/06/27 05:18:43;;;;;;;13.50;6.95;;;;;;;16.29;77.67;101890.56;5112295;28;20098;-62
2023/06/27 05:21:08;;;;;;;16.02;8.00;;;;;;;16.30;77.54;101886.06;5112618;28;20443;-61
2023/06/27 05:23:34;;;;;;;18.00;7.25;;;;;;;16.48;77.32;101883.91;5111625;28;20493;-62
2023/06/27 05:25:59;;;;;;;13.85;7.03;;;;;;;16.44;77.60;101883.28;5093806;28;20028;-62
2023/06/27 05:28:28;;;;;;;12.98;6.55;;;;;;;16.51;77.91;101889.91;5094090;28;20386;-61
2023/06/27 05:30:53;;;;;;;23.67;7.65;;;;;;;16.51;77.62;101889.06;5100739;28;20029;-61
2023/06/27 05:33:18;;;;;;;15.10;6.32;;;;;;;16.51;78.13;101889.06;5091563;28;20024;-62
2023/06/27 05:35:46;;;;;;;15.40;6.97;;;;;;;16.66;77.81;101887.94;5102788;28;20032;-61
2023/06/27 05:38:12;;;;;;;13.07;6.80;;;;;;;16.57;78.27;101885.94;5093422;28;20043;-62
2023/06/27 05:40:37;;;;;;;17.33;7.13;;;;;;;16.71;78.14;101883.13;5084830;28;20032;-62
2023/06/27 05:43:02;;;;;;;20.65;7.05;;;;;;;16.96;77.65;101887.56;5107377;28;20047;-61
2023/06/27 05:45:28;;;;;;;18.38;6.95;;;;;;;17.04;77.60;101889.72;5093473;28;20019;-62
2023/06/27 05:47:53;;;;;;;16.17;7.20;;;;;;;17.11;77.66;101880.22;5110027;28;20051;-61
2023/06/27 05:50:19;;;;;;;20.70;6.90;;;;;;;17.18;78.05;101886.84;5093865;28;20030;-62
2023/06/27 05:52:44;;;;;;;18.70;6.78;;;;;;;17.28;76.84;101881.66;5111633;28;20036;-62
2023/06/27 05:55:09;;;;;;;19.88;7.57;;;;;;;17.18;77.25;101875.25;5110182;28;20110;-62
2023/06/27 05:57:35;;;;;;;18.90;7.32;;;;;;;17.32;77.45;101880.44;5112076;28;20035;-62
2023/06/27 06:00:00;;;;;;;15.60;6.95;;;;;;;17.46;77.62;101884.78;5083096;28;20047;-62
2023/06/27 06:02:26;;;;;;;20.67;7.45;;;;;;;17.56;76.91;101879.53;5112019;28;20360;-62
2023/06/27 06:04:54;;;;;;;19.85;7.22;;;;;;;17.68;76.90;101890.25;5110469;28;20132;-62
2023/06/27 06:07:20;;;;;;;20.23;7.65;;;;;;;17.78;76.89;101884.19;5111040;28;20023;-62
2023/06/27 06:09:45;;;;;;;16.00;7.57;;;;;;;17.92;76.50;101884.00;5106732;28;20019;-62
2023/06/27 06:12:10;;;;;;;15.48;6.88;;;;;;;17.89;77.20;101881.53;5091735;28;20464;-62
2023/06/27 06:14:36;;;;;;;19.15;7.00;;;;;;;18.03;76.29;101880.44;5096792;28;20032;-62
2023/06/27 06:17:01;;;;;;;21.95;7.80;;;;;;;18.21;76.48;101879.03;5111900;28;20748;-62
2023/06/27 06:19:27;;;;;;;16.23;6.95;;;;;;;18.22;76.04;101877.19;5110776;28;20036;-62
2023/06/27 06:21:52;;;;;;;21.05;7.15;;;;;;;18.40;75.68;101881.09;5089999;28;20023;-62
2023/06/27 06:24:17;;;;;;;18.83;7.38;;;;;;;18.46;75.54;101883.28;5098715;28;20060;-61
2023/06/27 06:26:45;;;;;;;21.10;7.32;;;;;;;18.52;75.54;101888.19;5100838;28;20034;-62
2023/06/27 06:29:13;;;;;;;14.80;7.20;;;;;;;18.65;74.53;101887.19;5111438;28;20015;-62
2023/06/27 06:31:40;;;;;;;18.15;7.10;;;;;;;18.71;74.55;101886.72;5107234;28;20123;-61
2023/06/27 06:34:05;;;;;;;18.88;7.32;;;;;;;18.63;74.36;101875.72;5091786;28;20024;-61
2023/06/27 06:36:32;;;;;;;17.05;6.70;;;;;;;18.75;74.20;101889.06;5107933;28;20046;-61
2023/06/27 06:38:58;;;;;;;18.20;7.25;;;;;;;18.98;74.20;101891.75;5111057;28;20091;-62
2023/06/27 06:41:24;;;;;;;17.90;6.97;;;;;;;19.05;72.90;101903.72;5090484;28;20023;-62
2023/06/27 06:43:49;;;;;;;23.50;7.47;;;;;;;19.11;72.84;101900.53;5114453;28;20072;-61
2023/06/27 06:46:15;;;;;;;14.60;6.57;;;;;;;19.19;73.23;101913.38;5111472;28;20061;-61
2023/06/27 06:48:40;;;;;;;17.45;6.43;;;;;;;19.28;71.80;101915.31;5105907;28;20496;-62
2023/06/27 06:51:06;;;;;;;19.65;7.05;;;;;;;19.31;72.08;101914.22;5096428;28;20047;-61
2023/06/27 06:53:31;;;;;;;18.70;7.25;;;;;;;19.34;72.44;101908.56;5095915;28;20527;-62
2023/06/27 06:55:56;;;;;;;17.92;6.75;;;;;;;19.41;71.31;101907.03;5096780;28;20031;-61
2023/06/27 06:58:22;;;;;;;18.38;7.07;;;;;;;19.46;72.19;101902.13;5114488;28;20038;-60
2023/06/27 07:00:50;;;;;;;16.35;7.07;;;;;;;19.31;71.22;101909.66;5114850;28;20371;-62
2023/06/27 07:03:15;;;;;;;15.82;7.20;;;;;;;19.40;71.36;101899.94;5114673;28;20022;-61
2023/06/27 07:05:41;;;;;;;15.10;6.70;;;;;;;19.41;71.95;101909.75;5115054;27;20027;-61
2023/06/27 07:08:07;;;;;;;16.30;7.05;;;;;;;19.34;72.08;101898.63;5114644;28;20031;-63
2023/06/27 07:10:33;;;;;;;13.63;6.53;;;;;;;19.43;70.92;101897.84;5113513;28;20394;-62
2023/06/27 07:13:02;;;;;;;16.05;7.00;;;;;;;19.35;71.03;101894.91;5095783;28;20032;-62
2023/06/27 07:15:29;;;;;;;16.35;6.93;;;;;;;19.45;70.80;101914.75;5113284;28;20064;-66
2023/06/27 07:17:55;;;;;;;16.67;7.07;;;;;;;19.50;70.71;101914.38;5093087;28;20120;-64
2023/06/27 07:20:22;;;;;;;20.02;8.23;;;;;;;19.63;70.13;101919.59;5112048;28;20149;-66
2023/06/27 07:22:48;;;;;;;15.75;6.50;;;;;;;19.68;70.12;101922.81;5113951;28;20493;-60
2023/06/27 07:25:13;;;;;;;14.18;6.72;;;;;;;19.66;68.84;101916.69;5111888;28;20027;-62
2023/06/27 07:27:38;;;;;;;18.20;6.88;;;;;;;19.73;67.80;101918.72;5096248;28;20024;-68
2023/06/27 07:30:05;;;;;;;18.02;7.30;;;;;;;19.66;67.63;101919.38;5090223;28;20057;-67
2023/06/27 07:32:30;;;;;;;18.73;6.80;;;;;;;19.77;67.91;101903.13;5080999;27;20389;-71
2023/06/27 07:34:58;;;;;;;12.60;4.65;;;;;;;20.01;66.13;101913.66;5118711;27;20031;-71
2023/06/27 07:37:23;;;;;;;10.98;4.40;;;;;;;19.97;63.78;101906.81;5114090;28;20019;-70
2023/06/27 07:39:48;;;;;;;9.90;4.80;;;;;;;19.99;60.83;101910.22;5113359;28;20497;-70
2023/06/27 07:42:16;;;;;;;11.77;4.40;;;;;;;20.03;62.73;101900.00;5113560;28;20020;-68
2023/06/27 07:44:43;;;;;;;12.23;4.80;;;;;;;20.14;63.31;101905.34;5113587;28;20040;-69
2023/06/27 07:47:09;;;;;;;14.23;4.85;;;;;;;20.17;61.82;101911.34;5113477;28;20102;-69
2023/06/27 07:49:37;;;;;;;14.65;5.18;;;;;;;20.12;62.22;101915.47;5095633;28;20115;-68
2023/06/27 07:52:05;;;;;;;11.75;5.07;;;;;;;20.12;62.35;101908.19;5092091;28;20514;-70
2023/06/27 07:54:31;;;;;;;11.50;4.70;;;;;;;20.23;62.46;101901.00;5089481;28;20027;-69
2023/06/27 07:56:56;;;;;;;15.88;4.85;;;;;;;20.19;61.45;101908.53;5093813;28;20768;-67
2023/06/27 07:59:22;;;;;;;11.60;4.38;;;;;;;20.16;62.25;101906.94;5090410;28;20398;-64
2023/06/27 08:01:47;;;;;;;15.00;5.05;;;;;;;20.18;62.17;101904.97;5080216;28;20543;-62
2023/06/27 08:04:15;;;;;;;8.73;3.53;;;;;;;20.30;61.02;101911.16;5088823;28;20131;-65
2023/06/27 08:06:40;;;;;;;7.97;3.45;;;;;;;20.27;59.45;101913.25;5093033;28;20023;-61
2023/06/27 08:09:06;;;;;;;8.38;3.60;;;;;;;20.38;58.35;101907.75;5089757;28;20024;-60
2023/06/27 08:11:31;;;;;;;12.93;3.35;;;;;;;20.33;57.38;101908.16;5088912;28;20453;-61
2023/06/27 08:13:57;;;;;;;13.40;3.72;;;;;;;20.28;56.63;101909.56;5089457;28;20485;-60
2023/06/27 08:16:22;;;;;;;9.35;3.42;;;;;;;20.28;58.55;101909.56;5090122;28;20020;-61
2023/06/27 08:18:48;;;;;;;7.38;3.58;;;;;;;20.29;57.88;101897.75;5091902;28;20489;-61
2023/06/27 08:21:13;;;;;;;9.10;3.70;;;;;;;20.23;59.07;101896.44;5090761;28;20031;-60
2023/06/27 08:23:38;;;;;;;9.95;3.42;;;;;;;20.37;57.54;101906.06;5091751;28;20023;-60
2023/06/27 08:26:04;;;;;;;8.77;2.92;;;;;;;20.40;57.98;101898.53;5090993;28;20058;-61
2023/06/27 08:28:29;;;;;;;12.27;3.40;;;;;;;20.47;56.60;101892.56;5089958;28;20023;-60
2023/06/27 08:30:57;;;;;;;7.32;3.00;;;;;;;20.53;57.00;101910.97;5089528;28;20454;-61
2023/06/27 08:33:23;;;;;;;7.93;2.90;;;;;;;20.50;57.27;101906.69;5089445;28;20036;-61
2023/06/27 08:35:49;;;;;;;7.30;3.00;;;;;;;20.63;54.37;101909.19;5087308;28;20535;-60
2023/06/27 08:38:14;;;;;;;11.80;3.60;;;;;;;20.50;54.97;101905.81;5090370;28;20107;-60
2023/06/27 08:40:42;;;;;;;5.47;3.17;;;;;;;20.49;54.60;101906.81;5092037;28;20083;-61
2023/06/27 08:43:10;;;;;;;9.57;3.15;;;;;;;20.54;54.59;101910.84;5085593;28;20552;-61
2023/06/27 08:45:37;;;;;;;18.02;3.20;;;;;;;20.49;54.98;101912.22;5091776;28;20024;-60
2023/06/27 08:48:05;;;;;;;11.50;3.65;;;;;;;20.44;55.59;101899.09;5090531;28;20028;-60
2023/06/27 08:50:37;;;;;;;43.83;5.10;;;;;;;20.43;56.87;101897.41;5088189;28;20028;-59
2023/06/27 08:53:04;;;;;;;11.13;3.55;;;;;;;20.41;57.71;101897.56;5093313;28;20024;-60
2023/06/27 08:55:38;;;;;;;8.32;3.10;;;;;;;20.49;57.94;101891.44;5111992;28;20424;-60
2023/06/27 08:58:07;;;;;;;10.35;3.53;;;;;;;20.46;56.93;101897.13;5111716;28;20032;-61
2023/06/27 09:00:32;;;;;;;;;;;;;;;20.54;56.30;101891.09;5112282;28;20023;-61
2023/06/27 09:02:58;;;;;;;5.45;2.90;;;;;;;20.35;54.47;101889.09;5085649;28;20300;-60
2023/06/27 09:05:24;;;;;;;7.35;2.90;;;;;;;20.29;54.86;101893.19;5105935;28;20055;-60
2023/06/27 09:07:49;;;;;;;4.97;2.90;;;;;;;20.22;55.49;101892.03;5086096;28;20020;-61
2023/06/27 09:10:15;;;;;;;12.15;3.70;;;;;;;20.19;57.04;101887.75;5107449;28;20068;-61
2023/06/27 09:12:45;;;;;;;7.10;3.13;;;;;;;20.13;58.01;101888.28;5111880;28;20070;-61
2023/06/27 09:15:11;;;;;;;6.50;3.40;;;;;;;20.23;56.16;101903.69;5111700;28;20042;-60
2023/06/27 09:17:37;;;;;;;6.22;2.80;;;;;;;20.28;56.67;101896.06;5093792;28;20113;-61
2023/06/27 09:20:06;;;;;;;7.72;2.90;;;;;;;20.22;56.02;101883.09;5111199;28;20015;-61
2023/06/27 09:22:31;;;;;;;5.50;2.80;;;;;;;20.34;56.20;101890.09;5105472;28;20031;-61
2023/06/27 09:25:11;;;;;;;7.38;2.58;;;;;;;20.30;55.43;101889.53;5099072;28;20475;-61
2023/06/27 09:27:37;;;;;;;8.55;2.50;;;;;;;20.42;53.74;101903.81;5124407;27;20031;-61
2023/06/27 09:30:10;;;;;;;5.40;2.60;;;;;;;20.46;53.68;101899.84;5108911;28;20019;-61
2023/06/27 09:32:55;;;;;;;6.43;2.63;;;;;;;20.50;54.37;101898.59;5103413;27;20652;-62
2023/06/27 09:35:21;;;;;;;5.07;2.28;;;;;;;20.59;52.54;101905.06;5088303;28;20038;-62
2023/06/27 09:37:47;;;;;;;7.72;2.55;;;;;;;20.79;52.85;101898.69;5113951;28;20031;-63
2023/06/27 09:40:21;;;;;;;8.02;2.80;;;;;;;20.85;50.78;101900.88;5110342;28;20076;-62
2023/06/27 09:42:54;;;;;;;7.05;2.67;;;;;;;21.07;50.21;101904.34;5108733;28;20023;-61
2023/06/27 09:45:20;;;;;;;6.25;2.30;;;;;;;21.04;50.72;101902.75;5102446;28;20107;-60
2023/06/27 09:47:52;;;;;;;4.80;1.98;;;;;;;21.14;50.53;101902.78;5109216;28;20402;-60
2023/06/27 09:50:26;;;;;;;8.80;3.00;;;;;;;21.21;47.93;101908.50;5108780;28;20045;-61
2023/06/27 09:52:52;;;;;;;6.03;2.17;;;;;;;21.27;46.76;101916.06;5110996;28;20044;-61
2023/06/27 09:55:20;;;;;;;5.28;2.63;;;;;;;21.21;45.68;101917.47;5072184;28;20498;-60
2023/06/27 09:57:51;;;;;;;6.55;2.08;;;;;;;21.27;48.04;101908.78;5108660;28;20390;-61
2023/06/27 10:00:26;;;;;;;5.60;2.03;;;;;;;21.45;48.02;101918.94;5110199;28;20521;-61
2023/06/27 10:02:52;;;;;;;7.78;2.00;;;;;;;21.49;46.48;101907.69;5110910;28;20030;-61
2023/06/27 10:05:21;;;;;;;5.13;1.88;;;;;;;21.43;45.76;101907.41;5111060;28;20378;-60
2023/06/27 10:07:49;;;;;;;7.53;2.05;;;;;;;21.36;44.83;101904.41;5110769;28;20428;-61
2023/06/27 10:10:15;;;;;;;7.07;2.22;;;;;;;21.30;45.63;101910.34;5107095;28;20025;-62
2023/06/27 10:12:41;;;;;;;4.78;2.08;;;;;;;21.36;46.94;101903.53;5102360;28;20027;-61
2023/06/27 10:15:08;;;;;;;7.22;2.25;;;;;;;21.77;48.84;101905.13;5110922;28;20088;-65
2023/06/27 10:17:34;;;;;;;6.22;2.15;;;;;;;21.90;46.41;101908.38;5085402;28;20557;-65
2023/06/27 10:20:00;;;;;;;2.80;2.00;;;;;;;22.15;45.49;101904.19;5113046;28;20110;-66
2023/06/27 10:22:32;;;;;;;6.18;2.00;;;;;;;22.33;44.77;101909.75;5096073;28;20026;-66
2023/06/27 10:25:03;;;;;;;4.57;1.80;;;;;;;22.31;43.20;101914.44;5085900;28;20030;-66
2023/06/27 10:27:33;;;;;;;5.75;2.28;;;;;;;22.21;44.39;101898.22;5092692;28;20031;-66
2023/06/27 10:30:04;;;;;;;3.70;1.67;;;;;;;22.23;44.98;101908.91;5109878;28;20023;-66
2023/06/27 10:32:43;;;;;;;4.43;1.70;;;;;;;22.39;45.09;101914.56;5110376;27;20028;-66
2023/06/27 10:35:25;;;;;;;6.72;2.15;;;;;;;22.30;44.49;101901.06;5105505;28;20032;-66
2023/06/27 10:38:14;;;;;;;5.55;2.00;;;;;;;22.45;45.18;101910.41;5094748;28;20058;-66
2023/06/27 10:41:05;;;;;;;3.67;1.60;;;;;;;22.51;43.83;101911.69;5115028;28;20111;-66
2023/06/27 10:43:51;;;;;;;4.32;2.20;;;;;;;22.42;43.61;101910.72;5094027;28;20097;-67
2023/06/27 10:46:24;;;;;;;5.70;1.90;;;;;;;22.41;44.09;101899.00;5090473;28;20034;-66
2023/06/27 10:48:58;;;;;;;4.57;1.73;;;;;;;22.62;42.85;101898.78;5113502;28;20028;-66
2023/06/27 10:51:33;;;;;;;5.15;1.67;;;;;;;22.56;42.03;101907.53;5104741;27;20048;-66
2023/06/27 10:54:17;;;;;;;3.83;1.60;;;;;;;22.62;42.66;101895.22;5108932;28;20035;-65
2023/06/27 10:57:03;;;;;;;5.03;2.15;;;;;;;22.55;41.39;101900.38;5071653;28;20056;-66
2023/06/27 10:59:28;;;;;;;3.47;1.50;;;;;;;22.44;41.69;101892.41;5114456;28;20434;-66
2023/06/27 11:02:03;;;;;;;3.72;1.63;;;;;;;22.35;42.06;101901.44;5114780;28;20047;-66
2023/06/27 11:04:42;;;;;;;2.47;1.60;;;;;;;22.32;43.38;101899.03;5112733;28;20398;-65
2023/06/27 11:07:10;;;;;;;4.13;1.88;;;;;;;22.45;41.37;101894.16;5076158;28;20051;-66
2023/06/27 11:09:36;;;;;;;1.98;1.33;;;;;;;22.57;40.75;101901.09;5108348;28;20031;-66
2023/06/27 11:12:14;;;;;;;4.05;1.75;;;;;;;22.60;40.52;101908.91;5114040;28;20031;-68
2023/06/27 11:14:44;;;;;;;4.80;2.00;;;;;;;22.58;40.06;101910.06;5094801;28;20066;-69
2023/06/27 11:17:13;;;;;;;3.67;1.65;;;;;;;22.64;40.77;101906.75;5094924;28;20035;-67
2023/06/27 11:19:40;;;;;;;5.30;1.80;;;;;;;22.66;39.59;101900.19;5114321;27;20498;-67